Weather observations for the past three days for
Watauga County Hospital Heliport
Metric (Imperial)
Date Time (edt) Wind (kph) Vis. (km) Weather Sky Cond. Temperature (ºC) Relative Humidity Wind Chill (°C) Heat Index (°C) Pressure Precipitation (cm)
Air Dwpt 6 hour altimeter (cm) sea level (mb) 1 hr 3 hr 6 hr
Max. Min.
04 08:35 Calm 16.09 NULL NULL 19.5 19.5 100% 76.73 0.0
04 08:15 Calm 16.09 NULL NULL 18.1 18.1 100% 76.71 0.0
04 07:55 Calm 11.27 NULL NULL 17.2 17.2 19.2 16.1 100% 76.71 0.0
04 07:35 Calm 16.09 NULL NULL 17.3 17.3 100% 76.71 0.0
04 07:15 Calm 2.41 Fog/Mist NULL 16.5 16.5 100% 76.71 0.0
04 06:55 Calm 6.44 Fog/Mist NULL 16.9 16.9 100% 76.71 0.0
04 06:35 Calm 11.27 NULL NULL 17.7 17.7 100% 76.68 0.0
04 06:15 Calm 8.05 Fog/Mist NULL 17.7 17.7 100% 76.68 0.0
04 05:55 Calm 16.09 NULL NULL 18.5 18.5 100% 76.68 0.0
04 05:35 Calm 16.09 NULL NULL 18.5 18.5 100% 76.66 0.0
04 05:15 Calm 11.27 NULL NULL 18 18 100% 76.66 0.0
04 04:55 Calm 11.27 NULL NULL 17.8 17.8 100% 76.63 0.0
04 04:35 Calm 16.09 NULL NULL 18.4 18.4 100% 76.63 0.0
04 04:15 Calm 11.27 NULL NULL 18.2 18.2 100% 76.63 0.0
04 03:35 Calm 4.83 Fog/Mist NULL 17.5 17.5 100% 76.63 0.0
04 03:15 Calm 11.27 NULL NULL 18 18 100% 76.66 0.0
04 02:55 Calm 8.05 Fog/Mist NULL 17.7 17.7 100% 76.68 0.0
04 02:35 Calm 8.05 Fog/Mist NULL 18.2 18.2 100% 76.68 0.0
04 02:15 Calm 16.09 NULL NULL 19.2 19.2 100% 76.73 0.0
04 01:55 Calm 11.27 NULL NULL 18.6 18.6 24.4 18.4 100% 76.73 0.0
04 01:35 Calm 16.09 NULL NULL 18.9 18.9 100% 76.76 0.0
04 01:15 Calm 16.09 NULL NULL 19 19 100% 76.73 0.0
04 00:55 Calm 11.27 NULL NULL 18.6 18.6 100% 76.76 0.0
04 00:35 Calm 16.09 NULL NULL 19.1 19.1 100% 76.76 0.0
04 00:15 Calm 16.09 NULL NULL 19.3 19.3 100% 76.76 0.0
03 23:55 Calm 16.09 NULL NULL 19.6 19.6 100% 76.76 0.0
03 23:35 Calm 16.09 NULL NULL 19.7 19.7 100% 76.78 0.0
03 23:15 Calm 16.09 NULL NULL 20 20 100% 76.78 0.0
03 22:55 Calm 16.09 NULL NULL 20.9 20.8 99% 76.78 0.0
03 22:35 Calm 16.09 NULL NULL 20 20 100% 76.78 0.0
03 22:15 Calm 16.09 NULL NULL 20.2 20.2 100% 76.81 0.0
03 21:55 Calm 16.09 NULL NULL 20.6 20.6 100% 76.78 0.0
03 21:35 Calm 16.09 NULL NULL 21.9 20.6 92% 76.78 0.0
03 21:15 Calm 16.09 NULL NULL 22.2 20.2 89% 76.76 0.0
03 20:55 Calm 16.09 NULL NULL 22 20.5 91% 76.76 0.0
03 20:35 Calm 16.09 NULL NULL 23.1 19.5 80% 76.73 0.0
03 20:15 Calm 16.09 NULL NULL 22.8 19.5 82% 76.71 0.0
03 19:55 Calm 16.09 NULL NULL 23.9 19.5 31.7 23.6 76% 24 76.71 0.0
03 19:35 Calm 16.09 NULL NULL 26 19 65% 27 76.68 0.0
03 19:15 Calm 16.09 NULL NULL 26.5 19 63% 28 76.68 0.0
03 18:55 Calm 16.09 NULL NULL 27.1 18.6 60% 28 76.68 0.0
03 18:35 Calm 16.09 NULL NULL 27.8 18.1 56% 29 76.66 0.0
03 18:15 Calm 16.09 NULL NULL 27.5 18.1 57% 28 76.68 0.0
03 17:55 Calm 16.09 NULL NULL 27.9 18.4 56% 29 76.66 0.0
03 17:35 Calm 16.09 NULL NULL 29.5 18.1 50% 30 0 0.0
03 17:15 Calm 16.09 NULL NULL 28.1 18.6 56% 29 76.68 0.0
03 16:55 Calm 16.09 NULL NULL 28.5 18 53% 29 76.71 0.0
03 16:35 Calm 16.09 NULL NULL 30.2 17.9 48% 31 76.68 0.0
03 16:15 Calm 16.09 NULL NULL 30.3 18.6 50% 31 76.71 0.0
03 15:55 Calm 16.09 NULL NULL 30.5 18.8 50% 32 76.71 0.0
03 15:35 Calm 16.09 NULL NULL 29.5 18.1 50% 30 76.73 0.0
03 15:15 Calm 16.09 NULL NULL 30.1 18.7 50% 31 76.73 0.0
03 14:55 Calm 16.09 NULL NULL 30.9 18 46% 32 76.73 0.0
03 14:35 Calm 16.09 NULL NULL 31 18.5 47% 32 76.76 0.0
03 14:15 Calm 16.09 NULL NULL 30 17.6 47% 31 76.76 0.0
03 13:55 Calm 16.09 NULL NULL 30.6 17.9 30.9 18 47% 31 76.78 0.0
03 13:35 Calm 16.09 NULL NULL 30.5 16.5 43% 31 76.78 0.0
03 13:15 Calm 16.09 NULL NULL 30.4 19 51% 32 76.81 0.0
03 12:55 Calm 16.09 NULL NULL 29.8 18.6 51% 31 76.84 0.0
03 12:35 Calm 16.09 NULL NULL 30 18.8 51% 31 76.84 0.0
03 12:15 Calm 16.09 NULL NULL 28.6 18.2 53% 30 76.84 0.0
03 11:55 Calm 16.09 NULL NULL 29.5 16.5 45% 30 76.84 0.0
03 11:35 Calm 16.09 NULL NULL 28.1 17.7 53% 29 76.86 0.0
03 11:15 Calm 16.09 NULL NULL 27.9 19.1 59% 29 76.86 0.0
03 10:55 Calm 16.09 NULL NULL 27.6 18.7 58% 29 76.86 0.0
03 10:35 Calm 16.09 NULL NULL 26.9 19.4 64% 28 76.86 0.0
03 10:15 Calm 16.09 NULL NULL 26 18.7 64% 27 76.84 0.0
03 09:55 Calm 16.09 NULL NULL 24.7 19.9 75% 26 76.84 0.0
03 09:35 Calm 16.09 NULL NULL 23.4 20.1 82% 76.86 0.0
03 09:15 Calm 16.09 NULL NULL 22 20.7 92% 76.86 0.0
03 08:55 Calm 16.09 NULL NULL 20.5 20.5 100% 76.86 0.0
03 08:35 Calm 16.09 NULL NULL 19.3 19.3 100% 76.86 0.0
03 08:15 Calm 11.27 NULL NULL 18.5 18.5 100% 76.84 0.0
03 07:55 Calm 16.09 NULL NULL 18 18 19 16.5 100% 76.84 0.0
03 07:35 Calm 16.09 NULL NULL 18.2 18.2 100% 76.81 0.0
03 07:15 Calm 11.27 NULL NULL 17.5 17.5 100% 76.81 0.0
03 06:55 Calm 8.05 Fog/Mist NULL 16.6 16.6 100% 76.78 0.0
03 06:35 Calm 8.05 Fog/Mist NULL 17.2 17.2 100% 76.78 0.0
03 06:15 Calm 11.27 NULL NULL 17.9 17.9 100% 76.78 0.0
03 05:55 Calm 16.09 NULL NULL 18 18 100% 76.78 0.0
03 05:35 Calm 11.27 NULL NULL 17.5 17.5 100% 76.78 0.0
03 05:15 Calm 11.27 NULL NULL 17.5 17.5 100% 76.78 0.0
03 04:55 Calm 16.09 NULL NULL 17.9 17.9 100% 76.76 0.0
03 04:35 Calm 16.09 NULL NULL 17.9 17.9 100% 76.76 0.0
03 04:15 Calm 4.02 Fog/Mist NULL 17.3 17.3 100% 76.76 0.0
03 03:55 Calm 2.01 Fog/Mist NULL 17.2 17.2 100% 76.76 0.0
03 03:35 Calm 6.44 Fog/Mist NULL 17.8 17.8 100% 76.76 0.0
03 03:15 Calm 11.27 NULL NULL 18.1 18.1 100% 76.73 0.0
03 02:55 Calm 4.02 Fog/Mist NULL 18 18 100% 76.73 0.0
03 02:35 Calm 16.09 NULL NULL 18.8 18.8 100% 76.76 0.0
03 02:15 Calm 8.05 Fog/Mist NULL 18.2 18.2 100% 76.78 0.0
03 01:55 Calm 11.27 NULL NULL 19 19 25.2 19 100% 76.78 0.0
03 01:35 Calm 16.09 NULL NULL 19.1 19.1 100% 76.76 0.0
03 01:15 Calm 8.05 Fog/Mist NULL 19 19 100% 76.76 0.0
03 00:55 Calm 6.44 Fog/Mist NULL 19 19 100% 76.78 0.0
03 00:35 Calm 11.27 NULL NULL 19.5 19.5 100% 76.78 0.0
03 00:15 Calm 8.05 Fog/Mist NULL 19.4 19.4 100% 76.81 0.0
02 23:55 Calm 11.27 NULL NULL 19.8 19.8 100% 76.84 0.0
02 23:35 Calm 11.27 NULL NULL 20 20 100% 76.86 0.0
02 23:15 Calm 16.09 NULL NULL 20.6 20.6 100% 76.86 0.0
02 22:55 Calm 16.09 NULL NULL 20.3 20.3 100% 76.86 0.0
02 22:35 Calm 11.27 NULL NULL 20.4 20.4 100% 76.86 0.0
02 22:15 Calm 16.09 NULL NULL 20.8 20.8 100% 76.86 0.0
02 21:55 Calm 16.09 NULL NULL 20.7 20.7 100% 76.86 0.0
02 21:35 Calm 16.09 NULL NULL 21.6 21.6 100% 76.86 0.0
02 21:15 Calm 16.09 NULL NULL 21.5 21.5 100% 76.84 0.0
02 20:55 Calm 16.09 NULL NULL 21.8 21.6 99% 76.81 0.0
02 20:35 Calm 16.09 NULL NULL 23 20.5 86% 76.78 0.0
02 20:15 Calm 16.09 NULL NULL 23.5 20.5 83% 76.78 0.0
02 19:55 Calm 16.09 NULL NULL 25.2 20.1 31.2 24.6 73% 26 76.78 0.0
02 19:35 Calm 16.09 NULL NULL 25.6 20.1 72% 27 76.78 0.0
02 19:15 Calm 16.09 NULL NULL 27.1 19.5 63% 28 76.76 0.0
02 18:55 Calm 16.09 NULL NULL 27.7 19.3 60% 29 76.76 0.0
02 18:35 Calm 16.09 NULL NULL 28 20 62% 30 76.76 0.0
02 18:15 Calm 16.09 NULL NULL 28.3 20.6 63% 30 76.76 0.0
02 17:55 Calm 16.09 NULL NULL 27.4 20 64% 29 76.78 0.0
02 17:35 Calm 16.09 NULL NULL 27.9 19.9 62% 30 76.76 0.0
02 17:15 Calm 16.09 NULL NULL 29.3 18.1 51% 30 76.76 0.0
02 16:55 Calm 16.09 NULL NULL 30.5 18.2 48% 31 76.76 0.0
02 16:35 Calm 16.09 NULL NULL 30.3 15.9 42% 30 76.76 0.0
02 16:15 Calm 16.09 NULL NULL 30.5 15.4 40% 30 76.78 0.0
02 15:55 Calm 16.09 NULL NULL 30.5 15.7 41% 30 76.78 0.0
02 15:35 Calm 16.09 NULL NULL 30.1 15.6 41% 30 76.81 0.0
02 15:15 Calm 16.09 NULL NULL 28.9 17.4 50% 30 76.84 0.0
02 14:55 Calm 16.09 NULL NULL 29.3 16.7 47% 30 76.84 0.0
02 14:35 Calm 16.09 NULL NULL 29.6 16.1 44% 30 76.84 0.0
02 14:15 Calm 16.09 NULL NULL 29.4 16.8 47% 30 76.84 0.0
02 13:55 Calm 16.09 NULL NULL 30.1 16.1 30.8 16.5 43% 30 76.86 0.0 0.36
02 13:35 Calm 16.09 NULL NULL 30.3 15.7 41% 30 76.86 0.0
02 13:15 Calm 16.09 NULL NULL 30.1 16 43% 30 76.89 0.0
02 12:55 Calm 16.09 NULL NULL 29.2 15.5 43% 29 76.89 0.0
02 12:35 Calm 16.09 NULL NULL 28.9 15.9 45% 29 76.91 0.0
02 12:15 Calm 16.09 NULL NULL 28.6 16.4 48% 29 76.91 0.0
02 11:55 Calm 16.09 NULL NULL 28.2 16.4 49% 29 76.94 0.0
02 11:35 Calm 16.09 NULL NULL 27.8 16.5 50% 28 76.94 0.0
02 11:15 Calm 16.09 NULL NULL 27.6 17.1 53% 28 76.94 0.0
02 10:55 Calm 16.09 NULL NULL 27.3 17.7 56% 28 76.94 0.0 0.36
02 10:35 Calm 11.27 NULL NULL 26.4 17.2 57% 27 76.91 0.0
02 10:15 Calm 11.27 NULL NULL 26 17.4 59% 27 76.91 0.0
02 09:55 Calm 6.44 Haze NULL 25.1 19.2 70% 26 76.91 0.0 0.36
02 09:35 Calm 4.83 Haze NULL 22.7 19.3 81% 76.94 0.0
02 09:15 Calm 4.02 Fog/Mist NULL 20.8 20.8 100% 76.94 0.0
02 08:55 Calm 16.09 NULL NULL 19 19 100% 76.94 0.0
02 08:35 Calm 11.27 NULL NULL 18 18 100% 76.94 0.0
02 08:15 Calm 11.27 NULL NULL 17.1 17.1 100% 76.94 0.0
02 07:55 Calm 4.83 Fog/Mist NULL 16.3 16.3 17.8 15.5 100% 76.94 0.0
02 07:35 Calm 4.83 Fog/Mist NULL 16 16 100% 76.91 0.0
02 07:15 Calm 6.44 Fog/Mist NULL 16.1 16.1 100% 76.89 0.0
02 06:55 Calm 4.83 Fog/Mist NULL 15.7 15.7 100% 76.89 0.0
02 06:35 Calm 4.83 Fog/Mist NULL 15.8 15.8 100% 76.89 0.0
02 06:15 Calm 11.27 NULL NULL 16.3 16.3 100% 76.89 0.0
02 05:55 Calm 6.44 Fog/Mist NULL 15.9 15.9 100% 76.86 0.0
02 05:35 Calm 8.05 Fog/Mist NULL 16.5 16.5 100% 76.86 0.0
02 05:15 Calm 8.05 Fog/Mist NULL 16.5 16.5 100% 76.86 0.0
02 04:55 Calm 6.44 Fog/Mist NULL 16.6 16.6 100% 76.86 0.0
02 04:35 Calm 11.27 NULL NULL 17 17 100% 76.86 0.0
02 04:15 Calm 11.27 NULL NULL 16.6 16.6 100% 76.86 0.0
02 03:55 Calm 4.83 Fog/Mist NULL 16.5 16.5 100% 76.86 0.0
02 03:35 Calm 8.05 Fog/Mist NULL 16.8 16.8 100% 76.86 0.0
02 03:15 Calm 8.05 Fog/Mist NULL 17.1 17.1 100% 76.86 0.0
02 02:55 Calm 8.05 Fog/Mist NULL 16.9 16.9 100% 76.86 0.0
02 02:35 Calm 6.44 Fog/Mist NULL 17.3 17.3 100% 76.86 0.0
02 02:15 Calm 11.27 NULL NULL 17.5 17.5 100% 76.86 0.0
02 01:55 Calm 11.27 NULL NULL 17.8 17.8 25.2 17.6 100% 76.86 0.0
02 01:35 Calm 6.44 Fog/Mist NULL 17.6 17.6 100% 76.84 0.0
02 01:15 Calm 16.09 NULL NULL 18 18 100% 76.86 0.0
02 00:55 Calm 6.44 Fog/Mist NULL 18 18 100% 76.86 0.0
02 00:35 Calm 11.27 NULL NULL 18.4 18.4 100% 76.86 0.0
02 00:15 Calm 11.27 NULL NULL 18.6 18.6 100% 76.86 0.0
01 23:55 Calm 11.27 NULL NULL 18.6 18.6 100% 76.84 0.0
01 23:35 Calm 16.09 NULL NULL 18.7 18.7 100% 76.84 0.0
01 23:15 Calm 11.27 NULL NULL 18.8 18.8 100% 76.86 0.0
01 22:55 Calm 16.09 NULL NULL 19 19 100% 76.86 0.0
01 22:15 Calm 11.27 NULL NULL 20.1 19.3 95% 76.86 0.0
01 21:55 Calm 16.09 NULL NULL 20.1 20 99% 76.84 0.0
01 21:35 Calm 16.09 NULL NULL 20.2 20.2 100% 76.81 0.0
01 21:15 Calm 16.09 NULL NULL 20.5 18.8 90% 76.81 0.0
01 20:55 Calm 16.09 NULL NULL 21 19 88% 76.78 0.0
01 20:35 Calm 16.09 NULL NULL 22.4 18.7 80% 76.78 0.0
01 20:15 Calm 16.09 NULL NULL 22.5 18.7 79% 76.78 0.0
01 19:55 Calm 16.09 NULL NULL 25.2 18.1 30.3 25 65% 26 76.81 0.0
01 19:35 Calm 16.09 NULL NULL 26.5 18 60% 27 76.81 0.0
01 19:15 Calm 16.09 NULL NULL 27 17.4 56% 28 76.81 0.0
01 18:55 Calm 16.09 NULL NULL 27.5 17.2 53% 28 76.81 0.0
01 18:35 Calm 16.09 NULL NULL 28.2 16.8 50% 29 76.81 0.0
01 18:15 Calm 16.09 NULL NULL 28.6 16.5 48% 29 76.78 0.0
01 17:55 Calm 16.09 NULL NULL 28.5 15.9 46% 29 76.78 0.0
01 17:35 Calm 16.09 NULL NULL 28.4 16.3 48% 29 76.78 0.0
01 17:15 Calm 16.09 NULL NULL 29.2 16.2 45% 29 76.78 0.0
01 16:55 Calm 16.09 NULL NULL 29.5 16.3 45% 30 76.78 0.0
01 16:35 Calm 16.09 NULL NULL 29.1 16.1 45% 29 76.81 0.0
01 16:15 Calm 16.09 NULL NULL 29.4 15.5 43% 29 76.81 0.0
01 15:55 Calm 16.09 NULL NULL 30.2 16 42% 30 76.81 0.0
01 15:35 Calm 16.09 NULL NULL 28.4 16.5 48% 29 76.84 0.0
01 15:15 Calm 16.09 NULL NULL 29.7 16.6 45% 30 76.84 0.0
01 14:55 Calm 16.09 NULL NULL 29.7 17.1 47% 30 76.84 0.0
01 14:35 Calm 16.09 NULL NULL 28.6 16.1 47% 29 76.86 0.0
01 14:15 Calm 16.09 NULL NULL 28.7 17.4 50% 29 76.86 0.0
01 13:55 Calm 16.09 NULL NULL 28.5 16.6 28.6 16.3 49% 29 76.86 0.0
01 13:35 Calm 16.09 NULL NULL 28.3 17 50% 29 76.86 0.0
01 13:15 Calm 16.09 NULL NULL 28 17.3 52% 29 76.89 0.0
01 12:55 Calm 16.09 NULL NULL 28 16.8 51% 29 76.89 0.0
01 12:35 Calm 16.09 NULL NULL 28.1 16.8 50% 29 76.91 0.0
01 12:15 Calm 16.09 NULL NULL 27.9 16.9 51% 28 76.91 0.0
01 11:55 Calm 16.09 NULL NULL 27.3 17.4 55% 28 76.94 0.0
01 11:35 Calm 16.09 NULL NULL 27.4 17.8 56% 28 76.94 0.0
01 11:15 Calm 16.09 NULL NULL 26.1 17.9 61% 27 76.94 0.0
01 10:55 Calm 16.09 NULL NULL 25.5 17.7 62% 26 76.94 0.0
01 10:35 Calm 16.09 NULL NULL 25.1 17.7 64% 26 76.94 0.0
01 10:15 Calm 16.09 NULL NULL 24.7 17.6 65% 26 76.94 0.0
01 09:55 Calm 16.09 NULL NULL 24.1 17.6 67% 25 76.94 0.0
01 09:35 Calm 16.09 NULL NULL 23.4 17.6 70% 76.94 0.0
01 09:15 Calm 16.09 NULL NULL 20.7 20.7 100% 76.94 0.0
01 08:55 Calm 16.09 NULL NULL 18.8 18.8 100% 76.94 0.0
Date Time (edt) Wind (kph) Vis. (km) Weather Sky Cond. Air Dwpt Max. Min. Relative Humidity Wind Chill (°C) Heat Index (°C) altimeter (cm) sea level (mb) 1 hr 3 hr 6 hr
6 hour
Temperature (ºC) Pressure Precipitation (cm)